sensor_id;sensor_type;location;lat;lon;timestamp;temperature;humidity
33955;DHT22;20233;50.804;7.126;2022-07-29T00:01:21;21.00;99.90
33955;DHT22;20233;50.804;7.126;2022-07-29T00:03:47;21.00;99.90
33955;DHT22;20233;50.804;7.126;2022-07-29T00:06:13;21.10;99.90
33955;DHT22;20233;50.804;7.126;2022-07-29T00:08:38;21.10;99.90
33955;DHT22;20233;50.804;7.126;2022-07-29T00:11:04;21.20;99.90
33955;DHT22;20233;50.804;7.126;2022-07-29T00:13:30;21.20;99.90
33955;DHT22;20233;50.804;7.126;2022-07-29T00:15:55;21.20;99.90
33955;DHT22;20233;50.804;7.126;2022-07-29T00:18:21;21.20;99.90
33955;DHT22;20233;50.804;7.126;2022-07-29T00:20:46;21.20;99.90
33955;DHT22;20233;50.804;7.126;2022-07-29T00:23:12;21.20;99.90
33955;DHT22;20233;50.804;7.126;2022-07-29T00:25:37;21.20;99.90
33955;DHT22;20233;50.804;7.126;2022-07-29T00:28:03;21.10;99.90
33955;DHT22;20233;50.804;7.126;2022-07-29T00:30:28;21.00;99.90
33955;DHT22;20233;50.804;7.126;2022-07-29T00:32:54;21.10;99.90
33955;DHT22;20233;50.804;7.126;2022-07-29T00:35:20;21.10;99.90
33955;DHT22;20233;50.804;7.126;2022-07-29T00:38:04;21.20;99.90
33955;DHT22;20233;50.804;7.126;2022-07-29T00:40:30;21.10;99.90
33955;DHT22;20233;50.804;7.126;2022-07-29T00:42:55;21.10;99.90
33955;DHT22;20233;50.804;7.126;2022-07-29T00:45:21;21.10;99.90
33955;DHT22;20233;50.804;7.126;2022-07-29T00:47:48;21.00;99.90
33955;DHT22;20233;50.804;7.126;2022-07-29T00:50:14;21.00;99.90
33955;DHT22;20233;50.804;7.126;2022-07-29T00:52:41;20.90;99.90
33955;DHT22;20233;50.804;7.126;2022-07-29T00:55:09;21.00;99.90
33955;DHT22;20233;50.804;7.126;2022-07-29T00:57:36;21.00;99.90
33955;DHT22;20233;50.804;7.126;2022-07-29T01:00:04;21.00;99.90
33955;DHT22;20233;50.804;7.126;2022-07-29T01:02:30;21.00;99.90
33955;DHT22;20233;50.804;7.126;2022-07-29T01:04:56;20.90;99.90
33955;DHT22;20233;50.804;7.126;2022-07-29T01:07:26;20.90;99.90
33955;DHT22;20233;50.804;7.126;2022-07-29T01:09:53;20.80;99.90
33955;DHT22;20233;50.804;7.126;2022-07-29T01:12:23;20.80;99.90
33955;DHT22;20233;50.804;7.126;2022-07-29T01:14:49;20.80;99.90
33955;DHT22;20233;50.804;7.126;2022-07-29T01:18:13;20.70;99.90
33955;DHT22;20233;50.804;7.126;2022-07-29T01:20:39;20.70;99.90
33955;DHT22;20233;50.804;7.126;2022-07-29T01:23:16;20.60;99.90
33955;DHT22;20233;50.804;7.126;2022-07-29T01:26:04;20.40;99.90
33955;DHT22;20233;50.804;7.126;2022-07-29T01:31:47;20.40;99.90
33955;DHT22;20233;50.804;7.126;2022-07-29T01:34:32;20.40;99.90
33955;DHT22;20233;50.804;7.126;2022-07-29T01:37:15;20.40;99.90
33955;DHT22;20233;50.804;7.126;2022-07-29T01:39:47;20.40;99.90
33955;DHT22;20233;50.804;7.126;2022-07-29T01:45:00;20.40;99.90
33955;DHT22;20233;50.804;7.126;2022-07-29T01:47:34;20.30;99.90
33955;DHT22;20233;50.804;7.126;2022-07-29T01:50:07;20.30;99.90
33955;DHT22;20233;50.804;7.126;2022-07-29T01:52:42;20.30;99.90
33955;DHT22;20233;50.804;7.126;2022-07-29T01:55:16;20.30;99.90
33955;DHT22;20233;50.804;7.126;2022-07-29T01:57:45;20.30;99.90
33955;DHT22;20233;50.804;7.126;2022-07-29T02:00:13;20.30;99.90
33955;DHT22;20233;50.804;7.126;2022-07-29T02:02:42;20.30;99.90
33955;DHT22;20233;50.804;7.126;2022-07-29T02:05:11;20.30;99.90
33955;DHT22;20233;50.804;7.126;2022-07-29T02:07:40;20.20;99.90
33955;DHT22;20233;50.804;7.126;2022-07-29T02:10:09;20.20;99.90
33955;DHT22;20233;50.804;7.126;2022-07-29T02:12:35;20.20;99.90
33955;DHT22;20233;50.804;7.126;2022-07-29T02:15:03;20.20;99.90
33955;DHT22;20233;50.804;7.126;2022-07-29T02:17:47;20.20;99.90
33955;DHT22;20233;50.804;7.126;2022-07-29T02:20:15;20.10;99.90
33955;DHT22;20233;50.804;7.126;2022-07-29T02:22:42;19.90;99.90
33955;DHT22;20233;50.804;7.126;2022-07-29T02:25:09;19.90;99.90
33955;DHT22;20233;50.804;7.126;2022-07-29T02:27:37;19.90;99.90
33955;DHT22;20233;50.804;7.126;2022-07-29T02:30:05;19.80;99.90
33955;DHT22;20233;50.804;7.126;2022-07-29T02:32:35;19.70;99.90
33955;DHT22;20233;50.804;7.126;2022-07-29T02:35:02;19.80;99.90
33955;DHT22;20233;50.804;7.126;2022-07-29T02:37:29;19.70;99.90
33955;DHT22;20233;50.804;7.126;2022-07-29T02:39:57;19.70;99.90
33955;DHT22;20233;50.804;7.126;2022-07-29T02:42:24;19.60;99.90
33955;DHT22;20233;50.804;7.126;2022-07-29T02:44:52;19.60;99.90
33955;DHT22;20233;50.804;7.126;2022-07-29T02:47:47;19.60;99.90
33955;DHT22;20233;50.804;7.126;2022-07-29T02:50:21;19.70;99.90
33955;DHT22;20233;50.804;7.126;2022-07-29T02:53:12;19.50;99.90
33955;DHT22;20233;50.804;7.126;2022-07-29T02:55:45;19.60;99.90
33955;DHT22;20233;50.804;7.126;2022-07-29T02:58:30;19.50;99.90
33955;DHT22;20233;50.804;7.126;2022-07-29T03:01:01;19.50;99.90
33955;DHT22;20233;50.804;7.126;2022-07-29T03:03:31;19.50;99.90
33955;DHT22;20233;50.804;7.126;2022-07-29T03:05:59;19.40;99.90
33955;DHT22;20233;50.804;7.126;2022-07-29T03:08:26;19.40;99.90
33955;DHT22;20233;50.804;7.126;2022-07-29T03:10:53;19.40;99.90
33955;DHT22;20233;50.804;7.126;2022-07-29T03:13:19;18.70;99.90
33955;DHT22;20233;50.804;7.126;2022-07-29T03:15:47;18.90;99.90
33955;DHT22;20233;50.804;7.126;2022-07-29T03:18:13;19.10;99.90
33955;DHT22;20233;50.804;7.126;2022-07-29T03:20:39;19.30;99.90
33955;DHT22;20233;50.804;7.126;2022-07-29T03:23:06;19.30;99.90
33955;DHT22;20233;50.804;7.126;2022-07-29T03:25:32;19.40;99.90
33955;DHT22;20233;50.804;7.126;2022-07-29T03:27:58;19.40;99.90
33955;DHT22;20233;50.804;7.126;2022-07-29T03:30:24;19.20;99.90
33955;DHT22;20233;50.804;7.126;2022-07-29T03:32:51;19.00;99.90
33955;DHT22;20233;50.804;7.126;2022-07-29T03:35:17;19.10;99.90
33955;DHT22;20233;50.804;7.126;2022-07-29T03:37:43;19.20;99.90
33955;DHT22;20233;50.804;7.126;2022-07-29T03:40:12;19.30;99.90
33955;DHT22;20233;50.804;7.126;2022-07-29T03:42:42;19.20;99.90
33955;DHT22;20233;50.804;7.126;2022-07-29T03:45:12;19.10;99.90
33955;DHT22;20233;50.804;7.126;2022-07-29T03:47:43;19.20;99.90
33955;DHT22;20233;50.804;7.126;2022-07-29T03:50:11;19.30;99.90
33955;DHT22;20233;50.804;7.126;2022-07-29T03:52:40;19.30;99.90
33955;DHT22;20233;50.804;7.126;2022-07-29T03:55:06;19.30;99.90
33955;DHT22;20233;50.804;7.126;2022-07-29T03:57:33;19.30;99.90
33955;DHT22;20233;50.804;7.126;2022-07-29T04:00:01;18.90;99.90
33955;DHT22;20233;50.804;7.126;2022-07-29T04:02:28;18.70;99.90
33955;DHT22;20233;50.804;7.126;2022-07-29T04:04:54;18.60;99.90
33955;DHT22;20233;50.804;7.126;2022-07-29T04:07:19;18.40;99.90
33955;DHT22;20233;50.804;7.126;2022-07-29T04:09:45;18.30;99.90
33955;DHT22;20233;50.804;7.126;2022-07-29T04:12:10;18.10;99.90
33955;DHT22;20233;50.804;7.126;2022-07-29T04:14:36;18.00;99.90
33955;DHT22;20233;50.804;7.126;2022-07-29T04:17:03;18.00;99.90
33955;DHT22;20233;50.804;7.126;2022-07-29T04:19:30;17.90;99.90
33955;DHT22;20233;50.804;7.126;2022-07-29T04:21:56;17.90;99.90
33955;DHT22;20233;50.804;7.126;2022-07-29T04:24:22;17.90;99.90
33955;DHT22;20233;50.804;7.126;2022-07-29T04:26:48;17.90;99.90
33955;DHT22;20233;50.804;7.126;2022-07-29T04:29:14;17.90;99.90
33955;DHT22;20233;50.804;7.126;2022-07-29T04:31:43;17.90;99.90
33955;DHT22;20233;50.804;7.126;2022-07-29T04:34:09;18.10;99.90
33955;DHT22;20233;50.804;7.126;2022-07-29T04:36:34;18.20;99.90
33955;DHT22;20233;50.804;7.126;2022-07-29T04:39:00;18.30;99.90
33955;DHT22;20233;50.804;7.126;2022-07-29T04:41:27;18.30;99.90
33955;DHT22;20233;50.804;7.126;2022-07-29T04:43:52;18.50;99.90
33955;DHT22;20233;50.804;7.126;2022-07-29T04:46:18;18.40;99.90
33955;DHT22;20233;50.804;7.126;2022-07-29T04:48:45;18.30;99.90
33955;DHT22;20233;50.804;7.126;2022-07-29T04:51:12;18.30;99.90
33955;DHT22;20233;50.804;7.126;2022-07-29T04:53:37;18.30;99.90
33955;DHT22;20233;50.804;7.126;2022-07-29T04:56:03;18.20;99.90
33955;DHT22;20233;50.804;7.126;2022-07-29T04:58:29;18.20;99.90
33955;DHT22;20233;50.804;7.126;2022-07-29T05:00:54;18.20;99.90
33955;DHT22;20233;50.804;7.126;2022-07-29T05:03:20;18.20;99.90
33955;DHT22;20233;50.804;7.126;2022-07-29T05:05:46;18.20;99.90
33955;DHT22;20233;50.804;7.126;2022-07-29T05:08:11;18.20;99.90
33955;DHT22;20233;50.804;7.126;2022-07-29T05:10:37;18.20;99.90
33955;DHT22;20233;50.804;7.126;2022-07-29T05:13:06;18.20;99.90
33955;DHT22;20233;50.804;7.126;2022-07-29T05:15:33;18.30;99.90
33955;DHT22;20233;50.804;7.126;2022-07-29T05:18:00;18.40;99.90
33955;DHT22;20233;50.804;7.126;2022-07-29T05:20:27;18.40;99.90
33955;DHT22;20233;50.804;7.126;2022-07-29T05:23:00;18.50;99.90
33955;DHT22;20233;50.804;7.126;2022-07-29T05:25:27;18.50;99.90
33955;DHT22;20233;50.804;7.126;2022-07-29T05:27:54;18.80;99.90
33955;DHT22;20233;50.804;7.126;2022-07-29T05:30:20;19.10;99.90
33955;DHT22;20233;50.804;7.126;2022-07-29T05:32:46;19.20;99.90
33955;DHT22;20233;50.804;7.126;2022-07-29T05:35:12;19.40;99.90
33955;DHT22;20233;50.804;7.126;2022-07-29T05:37:38;19.20;99.90
33955;DHT22;20233;50.804;7.126;2022-07-29T05:40:04;19.60;99.90
33955;DHT22;20233;50.804;7.126;2022-07-29T05:42:30;19.50;99.90
33955;DHT22;20233;50.804;7.126;2022-07-29T05:44:56;19.50;99.90
33955;DHT22;20233;50.804;7.126;2022-07-29T05:47:23;19.40;99.90
33955;DHT22;20233;50.804;7.126;2022-07-29T05:49:49;19.50;99.90
33955;DHT22;20233;50.804;7.126;2022-07-29T05:52:16;19.30;99.90
33955;DHT22;20233;50.804;7.126;2022-07-29T05:54:42;19.40;99.90
33955;DHT22;20233;50.804;7.126;2022-07-29T05:57:08;19.70;99.90
33955;DHT22;20233;50.804;7.126;2022-07-29T05:59:37;19.70;99.90
33955;DHT22;20233;50.804;7.126;2022-07-29T06:02:03;20.00;99.90
33955;DHT22;20233;50.804;7.126;2022-07-29T06:04:31;19.90;99.90
33955;DHT22;20233;50.804;7.126;2022-07-29T06:06:57;20.00;99.90
33955;DHT22;20233;50.804;7.126;2022-07-29T06:09:22;20.00;99.90
33955;DHT22;20233;50.804;7.126;2022-07-29T06:11:48;20.20;99.90
33955;DHT22;20233;50.804;7.126;2022-07-29T06:14:14;20.50;99.90
33955;DHT22;20233;50.804;7.126;2022-07-29T06:16:40;20.60;99.90
33955;DHT22;20233;50.804;7.126;2022-07-29T06:19:06;20.70;99.90
33955;DHT22;20233;50.804;7.126;2022-07-29T06:21:31;20.50;99.90
33955;DHT22;20233;50.804;7.126;2022-07-29T06:23:57;20.70;99.90
33955;DHT22;20233;50.804;7.126;2022-07-29T06:26:22;20.80;99.90
33955;DHT22;20233;50.804;7.126;2022-07-29T06:28:48;20.60;99.90
33955;DHT22;20233;50.804;7.126;2022-07-29T06:31:14;20.80;99.90
33955;DHT22;20233;50.804;7.126;2022-07-29T06:33:40;21.00;99.90
33955;DHT22;20233;50.804;7.126;2022-07-29T06:36:06;21.00;99.90
33955;DHT22;20233;50.804;7.126;2022-07-29T06:38:33;21.20;99.90
33955;DHT22;20233;50.804;7.126;2022-07-29T06:40:59;21.30;99.90
33955;DHT22;20233;50.804;7.126;2022-07-29T06:43:28;21.40;99.90
33955;DHT22;20233;50.804;7.126;2022-07-29T06:45:58;21.30;99.90
33955;DHT22;20233;50.804;7.126;2022-07-29T06:48:23;21.60;99.90
33955;DHT22;20233;50.804;7.126;2022-07-29T06:50:49;21.10;99.90
33955;DHT22;20233;50.804;7.126;2022-07-29T06:53:15;21.40;99.90
33955;DHT22;20233;50.804;7.126;2022-07-29T06:55:40;21.50;99.90
33955;DHT22;20233;50.804;7.126;2022-07-29T06:58:06;21.60;99.90
33955;DHT22;20233;50.804;7.126;2022-07-29T07:00:33;21.20;99.90
33955;DHT22;20233;50.804;7.126;2022-07-29T07:02:58;21.00;99.90
33955;DHT22;20233;50.804;7.126;2022-07-29T07:05:24;21.20;99.90
33955;DHT22;20233;50.804;7.126;2022-07-29T07:07:49;21.40;99.90
33955;DHT22;20233;50.804;7.126;2022-07-29T07:10:15;21.30;99.90
33955;DHT22;20233;50.804;7.126;2022-07-29T07:12:41;21.20;99.90
33955;DHT22;20233;50.804;7.126;2022-07-29T07:15:07;21.10;99.90
33955;DHT22;20233;50.804;7.126;2022-07-29T07:17:33;21.40;99.90
33955;DHT22;20233;50.804;7.126;2022-07-29T07:19:59;21.70;99.90
33955;DHT22;20233;50.804;7.126;2022-07-29T07:22:25;21.90;99.90
33955;DHT22;20233;50.804;7.126;2022-07-29T07:24:50;21.90;99.90
33955;DHT22;20233;50.804;7.126;2022-07-29T07:27:16;22.20;99.90
33955;DHT22;20233;50.804;7.126;2022-07-29T07:29:42;22.30;99.90
33955;DHT22;20233;50.804;7.126;2022-07-29T07:32:07;22.20;99.90
33955;DHT22;20233;50.804;7.126;2022-07-29T07:34:33;22.30;99.90
33955;DHT22;20233;50.804;7.126;2022-07-29T07:36:59;22.40;99.90
33955;DHT22;20233;50.804;7.126;2022-07-29T07:39:24;22.50;99.90
33955;DHT22;20233;50.804;7.126;2022-07-29T07:41:51;22.50;99.90
33955;DHT22;20233;50.804;7.126;2022-07-29T07:44:17;22.70;99.90
33955;DHT22;20233;50.804;7.126;2022-07-29T07:46:43;22.70;99.90
33955;DHT22;20233;50.804;7.126;2022-07-29T07:49:10;22.80;99.90
33955;DHT22;20233;50.804;7.126;2022-07-29T07:51:36;22.80;99.90
33955;DHT22;20233;50.804;7.126;2022-07-29T07:54:02;22.90;99.90
33955;DHT22;20233;50.804;7.126;2022-07-29T07:56:28;22.70;99.90
33955;DHT22;20233;50.804;7.126;2022-07-29T07:58:53;22.80;99.90
33955;DHT22;20233;50.804;7.126;2022-07-29T08:01:19;22.90;99.90
33955;DHT22;20233;50.804;7.126;2022-07-29T08:03:51;23.00;99.90
33955;DHT22;20233;50.804;7.126;2022-07-29T08:06:17;23.00;99.90
33955;DHT22;20233;50.804;7.126;2022-07-29T08:08:42;23.10;99.90
33955;DHT22;20233;50.804;7.126;2022-07-29T08:11:08;23.20;99.90
33955;DHT22;20233;50.804;7.126;2022-07-29T08:13:33;23.30;99.90
33955;DHT22;20233;50.804;7.126;2022-07-29T08:15:59;23.30;99.90
33955;DHT22;20233;50.804;7.126;2022-07-29T08:18:30;23.40;99.90
33955;DHT22;20233;50.804;7.126;2022-07-29T08:20:56;23.40;99.90
33955;DHT22;20233;50.804;7.126;2022-07-29T08:23:22;23.10;99.90
33955;DHT22;20233;50.804;7.126;2022-07-29T08:25:49;23.40;99.90
33955;DHT22;20233;50.804;7.126;2022-07-29T08:28:14;22.90;99.90
33955;DHT22;20233;50.804;7.126;2022-07-29T08:30:40;22.90;99.90
33955;DHT22;20233;50.804;7.126;2022-07-29T08:33:06;22.60;99.90
33955;DHT22;20233;50.804;7.126;2022-07-29T08:35:31;23.10;99.90
33955;DHT22;20233;50.804;7.126;2022-07-29T08:37:57;23.20;99.90
33955;DHT22;20233;50.804;7.126;2022-07-29T08:40:23;23.50;99.90
33955;DHT22;20233;50.804;7.126;2022-07-29T08:42:50;23.80;99.90
33955;DHT22;20233;50.804;7.126;2022-07-29T08:45:15;23.90;99.90
33955;DHT22;20233;50.804;7.126;2022-07-29T08:47:43;24.10;99.90
33955;DHT22;20233;50.804;7.126;2022-07-29T08:50:10;24.00;99.90
33955;DHT22;20233;50.804;7.126;2022-07-29T08:52:40;23.60;99.90
33955;DHT22;20233;50.804;7.126;2022-07-29T08:55:07;23.30;99.90
33955;DHT22;20233;50.804;7.126;2022-07-29T08:57:34;23.20;99.90
33955;DHT22;20233;50.804;7.126;2022-07-29T09:00:01;23.00;99.90
33955;DHT22;20233;50.804;7.126;2022-07-29T09:02:29;23.00;99.90
33955;DHT22;20233;50.804;7.126;2022-07-29T09:05:00;23.50;99.90
33955;DHT22;20233;50.804;7.126;2022-07-29T09:07:26;23.50;99.90
33955;DHT22;20233;50.804;7.126;2022-07-29T09:09:52;23.60;99.90
33955;DHT22;20233;50.804;7.126;2022-07-29T09:12:18;24.10;99.90
33955;DHT22;20233;50.804;7.126;2022-07-29T09:14:43;24.20;99.90
33955;DHT22;20233;50.804;7.126;2022-07-29T09:17:09;24.50;99.90
33955;DHT22;20233;50.804;7.126;2022-07-29T09:19:36;24.60;99.90
33955;DHT22;20233;50.804;7.126;2022-07-29T09:22:04;24.30;99.90
33955;DHT22;20233;50.804;7.126;2022-07-29T09:24:40;24.50;99.90
33955;DHT22;20233;50.804;7.126;2022-07-29T09:27:10;24.80;99.90
33955;DHT22;20233;50.804;7.126;2022-07-29T09:29:36;24.80;99.90
33955;DHT22;20233;50.804;7.126;2022-07-29T09:32:07;24.20;99.90
33955;DHT22;20233;50.804;7.126;2022-07-29T09:34:34;24.00;99.90
33955;DHT22;20233;50.804;7.126;2022-07-29T09:37:00;23.90;99.90
33955;DHT22;20233;50.804;7.126;2022-07-29T09:39:39;24.40;99.90
33955;DHT22;20233;50.804;7.126;2022-07-29T09:42:11;24.60;99.90
33955;DHT22;20233;50.804;7.126;2022-07-29T09:44:48;24.50;99.90
33955;DHT22;20233;50.804;7.126;2022-07-29T09:47:15;24.50;99.90
33955;DHT22;20233;50.804;7.126;2022-07-29T09:49:58;23.90;99.90
33955;DHT22;20233;50.804;7.126;2022-07-29T09:52:29;24.00;99.90
33955;DHT22;20233;50.804;7.126;2022-07-29T09:55:08;24.00;99.90
33955;DHT22;20233;50.804;7.126;2022-07-29T09:57:35;24.00;99.90
33955;DHT22;20233;50.804;7.126;2022-07-29T10:00:10;24.30;99.90
33955;DHT22;20233;50.804;7.126;2022-07-29T10:02:38;24.40;99.90
33955;DHT22;20233;50.804;7.126;2022-07-29T10:05:07;24.50;99.90
33955;DHT22;20233;50.804;7.126;2022-07-29T10:07:53;24.70;99.90
33955;DHT22;20233;50.804;7.126;2022-07-29T10:12:55;24.20;99.90
33955;DHT22;20233;50.804;7.126;2022-07-29T10:15:23;24.50;99.90
33955;DHT22;20233;50.804;7.126;2022-07-29T10:17:50;24.70;99.90
33955;DHT22;20233;50.804;7.126;2022-07-29T10:20:16;24.60;99.90
33955;DHT22;20233;50.804;7.126;2022-07-29T10:22:42;24.50;99.90
33955;DHT22;20233;50.804;7.126;2022-07-29T10:25:10;24.80;99.90
33955;DHT22;20233;50.804;7.126;2022-07-29T10:27:36;25.20;99.90
33955;DHT22;20233;50.804;7.126;2022-07-29T10:30:04;25.20;99.90
33955;DHT22;20233;50.804;7.126;2022-07-29T10:32:39;25.50;99.90
33955;DHT22;20233;50.804;7.126;2022-07-29T10:43:52;26.00;99.90
33955;DHT22;20233;50.804;7.126;2022-07-29T10:46:19;25.20;99.90
33955;DHT22;20233;50.804;7.126;2022-07-29T10:49:11;25.60;99.90
33955;DHT22;20233;50.804;7.126;2022-07-29T10:52:11;25.30;99.90
33955;DHT22;20233;50.804;7.126;2022-07-29T10:59:43;25.70;99.90
33955;DHT22;20233;50.804;7.126;2022-07-29T11:07:24;25.40;99.90
33955;DHT22;20233;50.804;7.126;2022-07-29T11:15:05;25.50;99.90
33955;DHT22;20233;50.804;7.126;2022-07-29T11:20:47;25.60;99.90
33955;DHT22;20233;50.804;7.126;2022-07-29T11:23:28;26.00;99.90
33955;DHT22;20233;50.804;7.126;2022-07-29T11:31:38;26.60;99.90
33955;DHT22;20233;50.804;7.126;2022-07-29T11:39:33;26.30;99.90
33955;DHT22;20233;50.804;7.126;2022-07-29T11:47:25;26.20;99.90
33955;DHT22;20233;50.804;7.126;2022-07-29T11:49:51;25.90;99.90
33955;DHT22;20233;50.804;7.126;2022-07-29T11:52:18;26.70;99.90
33955;DHT22;20233;50.804;7.126;2022-07-29T11:54:44;26.70;99.90
33955;DHT22;20233;50.804;7.126;2022-07-29T11:57:10;27.20;99.90
33955;DHT22;20233;50.804;7.126;2022-07-29T11:59:44;27.30;99.90
33955;DHT22;20233;50.804;7.126;2022-07-29T12:02:10;26.30;99.90
33955;DHT22;20233;50.804;7.126;2022-07-29T12:04:51;26.00;99.90
33955;DHT22;20233;50.804;7.126;2022-07-29T12:07:18;26.30;99.90
33955;DHT22;20233;50.804;7.126;2022-07-29T12:09:51;26.80;99.90
33955;DHT22;20233;50.804;7.126;2022-07-29T12:12:17;26.50;99.90
33955;DHT22;20233;50.804;7.126;2022-07-29T12:14:43;26.90;99.90
33955;DHT22;20233;50.804;7.126;2022-07-29T12:17:27;26.30;99.90
33955;DHT22;20233;50.804;7.126;2022-07-29T12:19:54;25.90;99.90
33955;DHT22;20233;50.804;7.126;2022-07-29T12:22:26;25.50;99.90
33955;DHT22;20233;50.804;7.126;2022-07-29T12:24:53;25.60;99.90
33955;DHT22;20233;50.804;7.126;2022-07-29T12:27:19;25.40;99.90
33955;DHT22;20233;50.804;7.126;2022-07-29T12:32:11;25.30;99.90
33955;DHT22;20233;50.804;7.126;2022-07-29T12:34:37;25.70;99.90
33955;DHT22;20233;50.804;7.126;2022-07-29T12:37:03;26.30;99.90
33955;DHT22;20233;50.804;7.126;2022-07-29T12:39:29;26.10;99.90
33955;DHT22;20233;50.804;7.126;2022-07-29T12:41:55;25.50;99.90
33955;DHT22;20233;50.804;7.126;2022-07-29T12:44:20;26.00;99.90
33955;DHT22;20233;50.804;7.126;2022-07-29T12:47:01;26.50;99.90
33955;DHT22;20233;50.804;7.126;2022-07-29T12:49:27;26.80;99.90
33955;DHT22;20233;50.804;7.126;2022-07-29T12:51:52;26.00;99.90
33955;DHT22;20233;50.804;7.126;2022-07-29T12:54:18;26.60;99.90
33955;DHT22;20233;50.804;7.126;2022-07-29T12:56:44;26.20;99.90
33955;DHT22;20233;50.804;7.126;2022-07-29T12:59:17;26.30;99.90
33955;DHT22;20233;50.804;7.126;2022-07-29T13:01:44;26.70;99.90
33955;DHT22;20233;50.804;7.126;2022-07-29T13:04:27;27.00;99.90
33955;DHT22;20233;50.804;7.126;2022-07-29T13:07:23;25.80;99.90
33955;DHT22;20233;50.804;7.126;2022-07-29T13:09:49;25.60;99.90
33955;DHT22;20233;50.804;7.126;2022-07-29T13:12:14;25.90;99.90
33955;DHT22;20233;50.804;7.126;2022-07-29T13:14:42;26.00;99.90
33955;DHT22;20233;50.804;7.126;2022-07-29T13:17:14;26.20;99.90
33955;DHT22;20233;50.804;7.126;2022-07-29T13:19:52;26.60;99.90
33955;DHT22;20233;50.804;7.126;2022-07-29T13:22:23;27.00;99.90
33955;DHT22;20233;50.804;7.126;2022-07-29T13:24:58;26.30;99.90
33955;DHT22;20233;50.804;7.126;2022-07-29T13:27:25;25.60;99.90
33955;DHT22;20233;50.804;7.126;2022-07-29T13:29:52;25.70;99.90
33955;DHT22;20233;50.804;7.126;2022-07-29T13:32:21;26.10;99.90
33955;DHT22;20233;50.804;7.126;2022-07-29T13:37:13;25.60;99.90
33955;DHT22;20233;50.804;7.126;2022-07-29T13:39:38;25.90;99.90
33955;DHT22;20233;50.804;7.126;2022-07-29T13:42:06;26.00;99.90
33955;DHT22;20233;50.804;7.126;2022-07-29T13:44:31;26.50;99.90
33955;DHT22;20233;50.804;7.126;2022-07-29T13:46:57;26.40;99.90
33955;DHT22;20233;50.804;7.126;2022-07-29T13:49:24;26.70;99.90
33955;DHT22;20233;50.804;7.126;2022-07-29T13:51:50;26.70;99.90
33955;DHT22;20233;50.804;7.126;2022-07-29T13:54:16;25.90;99.90
33955;DHT22;20233;50.804;7.126;2022-07-29T13:56:41;26.10;99.90
33955;DHT22;20233;50.804;7.126;2022-07-29T13:59:07;26.20;99.90
33955;DHT22;20233;50.804;7.126;2022-07-29T14:01:37;26.20;99.90
33955;DHT22;20233;50.804;7.126;2022-07-29T14:04:02;26.40;99.90
33955;DHT22;20233;50.804;7.126;2022-07-29T14:06:28;27.00;99.90
33955;DHT22;20233;50.804;7.126;2022-07-29T14:08:54;26.70;99.90
33955;DHT22;20233;50.804;7.126;2022-07-29T14:11:20;26.50;99.90
33955;DHT22;20233;50.804;7.126;2022-07-29T14:13:45;26.90;99.90
33955;DHT22;20233;50.804;7.126;2022-07-29T14:16:11;26.90;99.90
33955;DHT22;20233;50.804;7.126;2022-07-29T14:18:37;26.30;99.90
33955;DHT22;20233;50.804;7.126;2022-07-29T14:21:02;26.50;99.90
33955;DHT22;20233;50.804;7.126;2022-07-29T14:23:28;26.70;99.90
33955;DHT22;20233;50.804;7.126;2022-07-29T14:25:54;26.80;99.90
33955;DHT22;20233;50.804;7.126;2022-07-29T14:28:20;26.70;99.90
33955;DHT22;20233;50.804;7.126;2022-07-29T14:30:45;26.60;99.90
33955;DHT22;20233;50.804;7.126;2022-07-29T14:33:11;26.70;99.90
33955;DHT22;20233;50.804;7.126;2022-07-29T14:35:37;27.20;99.90
33955;DHT22;20233;50.804;7.126;2022-07-29T14:38:03;27.70;99.90
33955;DHT22;20233;50.804;7.126;2022-07-29T14:40:29;26.50;99.90
33955;DHT22;20233;50.804;7.126;2022-07-29T14:42:54;26.70;99.90
33955;DHT22;20233;50.804;7.126;2022-07-29T14:45:20;26.20;99.90
33955;DHT22;20233;50.804;7.126;2022-07-29T14:47:46;26.10;99.90
33955;DHT22;20233;50.804;7.126;2022-07-29T14:50:12;26.80;99.90
33955;DHT22;20233;50.804;7.126;2022-07-29T14:52:38;26.80;99.90
33955;DHT22;20233;50.804;7.126;2022-07-29T14:55:04;26.20;99.90
33955;DHT22;20233;50.804;7.126;2022-07-29T14:57:31;26.90;99.90
33955;DHT22;20233;50.804;7.126;2022-07-29T14:59:57;27.40;99.90
33955;DHT22;20233;50.804;7.126;2022-07-29T15:02:22;27.60;99.90
33955;DHT22;20233;50.804;7.126;2022-07-29T15:04:48;27.40;99.90
33955;DHT22;20233;50.804;7.126;2022-07-29T15:07:14;27.70;99.90
33955;DHT22;20233;50.804;7.126;2022-07-29T15:09:41;26.90;99.90
33955;DHT22;20233;50.804;7.126;2022-07-29T15:12:07;26.80;99.90
33955;DHT22;20233;50.804;7.126;2022-07-29T15:14:33;26.90;99.90
33955;DHT22;20233;50.804;7.126;2022-07-29T15:16:59;27.00;99.90
33955;DHT22;20233;50.804;7.126;2022-07-29T15:19:25;26.50;99.90
33955;DHT22;20233;50.804;7.126;2022-07-29T15:21:50;27.20;99.90
33955;DHT22;20233;50.804;7.126;2022-07-29T15:24:16;26.40;99.90
33955;DHT22;20233;50.804;7.126;2022-07-29T15:26:42;26.50;99.90
33955;DHT22;20233;50.804;7.126;2022-07-29T15:29:08;26.10;99.90
33955;DHT22;20233;50.804;7.126;2022-07-29T15:31:34;26.20;99.90
33955;DHT22;20233;50.804;7.126;2022-07-29T15:34:00;26.10;99.90
33955;DHT22;20233;50.804;7.126;2022-07-29T15:36:25;26.10;99.90
33955;DHT22;20233;50.804;7.126;2022-07-29T15:38:54;26.30;99.90
33955;DHT22;20233;50.804;7.126;2022-07-29T15:41:20;26.10;99.90
33955;DHT22;20233;50.804;7.126;2022-07-29T15:43:47;26.30;99.90
33955;DHT22;20233;50.804;7.126;2022-07-29T15:46:15;26.60;99.90
33955;DHT22;20233;50.804;7.126;2022-07-29T15:49:00;26.20;99.90
33955;DHT22;20233;50.804;7.126;2022-07-29T15:51:26;26.60;99.90
33955;DHT22;20233;50.804;7.126;2022-07-29T15:53:52;27.10;99.90
33955;DHT22;20233;50.804;7.126;2022-07-29T15:56:18;26.60;99.90
33955;DHT22;20233;50.804;7.126;2022-07-29T15:58:43;26.70;99.90
33955;DHT22;20233;50.804;7.126;2022-07-29T16:01:09;26.90;99.90
33955;DHT22;20233;50.804;7.126;2022-07-29T16:03:35;27.10;99.90
33955;DHT22;20233;50.804;7.126;2022-07-29T16:06:01;27.30;99.90
33955;DHT22;20233;50.804;7.126;2022-07-29T16:08:27;27.50;99.90
33955;DHT22;20233;50.804;7.126;2022-07-29T16:10:52;26.40;99.90
33955;DHT22;20233;50.804;7.126;2022-07-29T16:13:18;26.00;99.90
33955;DHT22;20233;50.804;7.126;2022-07-29T16:15:44;25.90;99.90
33955;DHT22;20233;50.804;7.126;2022-07-29T16:18:09;25.80;99.90
33955;DHT22;20233;50.804;7.126;2022-07-29T16:20:36;26.10;99.90
33955;DHT22;20233;50.804;7.126;2022-07-29T16:23:02;26.30;99.90
33955;DHT22;20233;50.804;7.126;2022-07-29T16:25:27;26.20;99.90
33955;DHT22;20233;50.804;7.126;2022-07-29T16:27:53;25.80;99.90
33955;DHT22;20233;50.804;7.126;2022-07-29T16:30:19;26.20;99.90
33955;DHT22;20233;50.804;7.126;2022-07-29T16:32:44;26.20;99.90